Terminal Aerodrome Forecast
Issued by NWS

Home | Current Version | Previous Version | Text Only | Print | Product List | Glossary On
Versions: 1 2 3 4 5 6 7 8 9 10 11 12
000
FTUS45 KABQ 312340
TAFGUP
TAF
KGUP 312340Z 0100/0124 26010KT P6SM VCSH BKN090
      TEMPO 0100/0102 VRB19G31KT -TSRA BKN070CB BKN120
     FM010230 22007KT P6SM VCSH BKN090
      TEMPO 0103/0105 VRB14G25KT BKN080 BKN120
     FM010600 VRB03KT P6SM BKN100
     FM012030 25009KT P6SM VCSH SCT080 BKN120=

USA.gov is the U.S. government's official web portal to all federal, state and local government web resources and services.